sensor_id;sensor_type;location;lat;lon;timestamp;pressure;altitude;pressure_sealevel;temperature;humidity
23361;BME280;11852;50.082;18.554;2022-07-06T10:49:22;98958.0;;;21.01;66.28
23361;BME280;11852;50.082;18.554;2022-07-06T10:50:31;98956.5;;;21.04;65.53
23361;BME280;11852;50.082;18.554;2022-07-06T10:51:33;98959.5;;;21.1;66.53
23361;BME280;11852;50.082;18.554;2022-07-06T10:56:42;98956.01;;;20.82;67.02
23361;BME280;11852;50.082;18.554;2022-07-06T10:57:52;98956.5;;;20.87;65.5
23361;BME280;11852;50.082;18.554;2022-07-06T10:58:56;98956.5;;;20.93;65.52
23361;BME280;11852;50.082;18.554;2022-07-06T11:00:01;98958.0;;;20.97;66.46
23361;BME280;11852;50.082;18.554;2022-07-06T11:01:04;98959.0;;;21.01;66.57
23361;BME280;11852;50.082;18.554;2022-07-06T11:04:32;98962.5;;;21.12;65.25
23361;BME280;11852;50.082;18.554;2022-07-06T11:05:40;98955.5;;;21.28;65.17
23361;BME280;11852;50.082;18.554;2022-07-06T11:06:45;98954.0;;;21.3;64.81
23361;BME280;11852;50.082;18.554;2022-07-06T11:07:50;98956.5;;;21.41;64.07
23361;BME280;11852;50.082;18.554;2022-07-06T11:10:12;98955.01;;;21.36;63.4
23361;BME280;11852;50.082;18.554;2022-07-06T11:11:19;98954.5;;;21.35;63.65
23361;BME280;11852;50.082;18.554;2022-07-06T11:12:22;98951.0;;;21.15;64.35
23361;BME280;11852;50.082;18.554;2022-07-06T11:13:29;98956.01;;;21.15;65.21
23361;BME280;11852;50.082;18.554;2022-07-06T11:14:36;98953.5;;;21.18;64.72
23361;BME280;11852;50.082;18.554;2022-07-06T11:15:48;98957.99;;;21.3;65.39
23361;BME280;11852;50.082;18.554;2022-07-06T11:17:01;98957.99;;;21.38;65.59
23361;BME280;11852;50.082;18.554;2022-07-06T11:18:11;98962.5;;;21.45;64.96
23361;BME280;11852;50.082;18.554;2022-07-06T11:19:14;98958.0;;;21.61;63.83
23361;BME280;11852;50.082;18.554;2022-07-06T11:20:15;98962.5;;;21.86;64.62
23361;BME280;11852;50.082;18.554;2022-07-06T11:21:22;98957.5;;;21.97;62.57
23361;BME280;11852;50.082;18.554;2022-07-06T11:22:26;98958.0;;;21.83;62.78
23361;BME280;11852;50.082;18.554;2022-07-06T11:23:30;98956.0;;;22.06;63.41
23361;BME280;11852;50.082;18.554;2022-07-06T11:24:36;98956.5;;;22.0;62.35
23361;BME280;11852;50.082;18.554;2022-07-06T11:25:38;98953.0;;;22.13;60.52
23361;BME280;11852;50.082;18.554;2022-07-06T11:26:43;98953.5;;;21.85;61.04
23361;BME280;11852;50.082;18.554;2022-07-06T11:27:46;98952.0;;;21.8;61.15
23361;BME280;11852;50.082;18.554;2022-07-06T11:28:50;98954.51;;;22.01;61.44
23361;BME280;11852;50.082;18.554;2022-07-06T11:29:54;98954.0;;;22.14;60.28
23361;BME280;11852;50.082;18.554;2022-07-06T11:30:59;98952.5;;;22.19;60.32
23361;BME280;11852;50.082;18.554;2022-07-06T11:32:02;98951.0;;;22.13;61.24
23361;BME280;11852;50.082;18.554;2022-07-06T11:33:06;98949.5;;;22.15;61.49
23361;BME280;11852;50.082;18.554;2022-07-06T11:34:11;98950.5;;;22.26;60.56
23361;BME280;11852;50.082;18.554;2022-07-06T11:35:20;98952.5;;;22.44;61.99
23361;BME280;11852;50.082;18.554;2022-07-06T11:36:19;98955.0;;;22.33;61.2
23361;BME280;11852;50.082;18.554;2022-07-06T11:37:23;98953.0;;;22.12;58.69
23361;BME280;11852;50.082;18.554;2022-07-06T11:38:27;98956.01;;;22.05;58.63
23361;BME280;11852;50.082;18.554;2022-07-06T11:39:38;98950.5;;;22.35;59.94
23361;BME280;11852;50.082;18.554;2022-07-06T11:40:38;98949.0;;;22.43;59.76
23361;BME280;11852;50.082;18.554;2022-07-06T11:41:42;98949.5;;;22.51;58.31
23361;BME280;11852;50.082;18.554;2022-07-06T11:42:54;98951.5;;;22.22;58.21
23361;BME280;11852;50.082;18.554;2022-07-06T11:43:59;98944.49;;;22.3;59.29
23361;BME280;11852;50.082;18.554;2022-07-06T11:45:03;98943.5;;;22.5;60.16
23361;BME280;11852;50.082;18.554;2022-07-06T11:46:07;98941.5;;;22.59;58.55
23361;BME280;11852;50.082;18.554;2022-07-06T11:47:11;98943.0;;;22.59;58.63
23361;BME280;11852;50.082;18.554;2022-07-06T11:48:15;98941.5;;;22.67;58.13
23361;BME280;11852;50.082;18.554;2022-07-06T11:49:19;98942.5;;;22.72;58.58
23361;BME280;11852;50.082;18.554;2022-07-06T11:50:23;98942.51;;;22.53;59.0
23361;BME280;11852;50.082;18.554;2022-07-06T11:51:27;98941.0;;;22.33;58.5
23361;BME280;11852;50.082;18.554;2022-07-06T11:52:31;98939.5;;;22.07;59.26
23361;BME280;11852;50.082;18.554;2022-07-06T11:53:35;98942.01;;;22.08;59.29
23361;BME280;11852;50.082;18.554;2022-07-06T11:54:41;98940.5;;;22.1;60.08
23361;BME280;11852;50.082;18.554;2022-07-06T11:55:46;98942.5;;;22.3;60.0
23361;BME280;11852;50.082;18.554;2022-07-06T11:56:53;98941.5;;;22.28;58.92
23361;BME280;11852;50.082;18.554;2022-07-06T11:57:56;98944.5;;;22.1;59.19
23361;BME280;11852;50.082;18.554;2022-07-06T11:59:01;98941.5;;;22.2;59.67
23361;BME280;11852;50.082;18.554;2022-07-06T12:00:05;98946.5;;;22.37;58.17
23361;BME280;11852;50.082;18.554;2022-07-06T12:01:10;98942.0;;;22.26;58.02
23361;BME280;11852;50.082;18.554;2022-07-06T12:02:16;98945.5;;;22.43;58.83
23361;BME280;11852;50.082;18.554;2022-07-06T12:03:20;98943.99;;;22.38;57.38
23361;BME280;11852;50.082;18.554;2022-07-06T12:04:24;98943.0;;;22.31;56.9
23361;BME280;11852;50.082;18.554;2022-07-06T12:05:32;98939.5;;;22.42;58.08
23361;BME280;11852;50.082;18.554;2022-07-06T12:06:36;98937.5;;;22.44;58.26
23361;BME280;11852;50.082;18.554;2022-07-06T12:07:39;98934.0;;;22.59;58.69
23361;BME280;11852;50.082;18.554;2022-07-06T12:08:44;98939.5;;;22.69;59.35
23361;BME280;11852;50.082;18.554;2022-07-06T12:09:47;98936.5;;;22.61;59.06
23361;BME280;11852;50.082;18.554;2022-07-06T12:10:52;98935.0;;;22.62;59.4
23361;BME280;11852;50.082;18.554;2022-07-06T12:11:56;98936.0;;;22.56;59.55
23361;BME280;11852;50.082;18.554;2022-07-06T12:13:03;98932.0;;;22.39;58.64
23361;BME280;11852;50.082;18.554;2022-07-06T12:15:27;98926.0;;;22.46;58.58
23361;BME280;11852;50.082;18.554;2022-07-06T12:16:32;98925.5;;;22.47;58.65
23361;BME280;11852;50.082;18.554;2022-07-06T12:17:35;98925.0;;;22.51;58.5
23361;BME280;11852;50.082;18.554;2022-07-06T12:18:40;98928.0;;;22.33;59.33
23361;BME280;11852;50.082;18.554;2022-07-06T12:19:44;98922.5;;;22.27;58.74
23361;BME280;11852;50.082;18.554;2022-07-06T12:20:48;98922.5;;;22.35;58.78
23361;BME280;11852;50.082;18.554;2022-07-06T12:21:52;98925.0;;;22.33;58.97
23361;BME280;11852;50.082;18.554;2022-07-06T12:23:04;98919.99;;;22.13;59.44
23361;BME280;11852;50.082;18.554;2022-07-06T12:24:06;98916.0;;;21.74;59.01
23361;BME280;11852;50.082;18.554;2022-07-06T12:25:10;98916.0;;;21.91;58.86
23361;BME280;11852;50.082;18.554;2022-07-06T12:26:14;98914.0;;;22.07;58.6
23361;BME280;11852;50.082;18.554;2022-07-06T12:27:18;98912.5;;;22.2;58.73
23361;BME280;11852;50.082;18.554;2022-07-06T12:28:22;98913.0;;;22.4;59.43
23361;BME280;11852;50.082;18.554;2022-07-06T12:29:26;98914.0;;;22.56;58.92
23361;BME280;11852;50.082;18.554;2022-07-06T12:30:30;98910.0;;;22.53;58.29
23361;BME280;11852;50.082;18.554;2022-07-06T12:31:38;98917.0;;;22.58;57.9
23361;BME280;11852;50.082;18.554;2022-07-06T12:32:41;98912.0;;;22.53;57.23
23361;BME280;11852;50.082;18.554;2022-07-06T12:33:55;98911.0;;;22.44;57.39
23361;BME280;11852;50.082;18.554;2022-07-06T12:36:09;98909.0;;;22.49;58.17
23361;BME280;11852;50.082;18.554;2022-07-06T12:37:12;98910.5;;;22.16;58.4
23361;BME280;11852;50.082;18.554;2022-07-06T12:38:22;98910.5;;;22.21;59.47
23361;BME280;11852;50.082;18.554;2022-07-06T12:39:27;98910.0;;;22.33;59.35
23361;BME280;11852;50.082;18.554;2022-07-06T12:40:29;98909.5;;;22.35;59.29
23361;BME280;11852;50.082;18.554;2022-07-06T12:41:36;98910.0;;;22.36;59.19
23361;BME280;11852;50.082;18.554;2022-07-06T12:42:46;98908.5;;;22.35;59.04
23361;BME280;11852;50.082;18.554;2022-07-06T12:44:08;98910.0;;;22.36;59.28
23361;BME280;11852;50.082;18.554;2022-07-06T12:45:31;98910.0;;;22.27;58.29
23361;BME280;11852;50.082;18.554;2022-07-06T12:46:37;98911.0;;;22.31;57.96
23361;BME280;11852;50.082;18.554;2022-07-06T12:47:48;98909.5;;;22.34;57.92
23361;BME280;11852;50.082;18.554;2022-07-06T12:48:51;98906.0;;;22.38;58.44
23361;BME280;11852;50.082;18.554;2022-07-06T12:51:11;98910.0;;;22.26;57.25
23361;BME280;11852;50.082;18.554;2022-07-06T12:52:38;98913.0;;;22.33;57.61
23361;BME280;11852;50.082;18.554;2022-07-06T12:53:44;98907.5;;;22.15;55.02
23361;BME280;11852;50.082;18.554;2022-07-06T12:54:54;98907.99;;;22.28;55.06
23361;BME280;11852;50.082;18.554;2022-07-06T12:56:11;98903.5;;;22.29;55.99
23361;BME280;11852;50.082;18.554;2022-07-06T12:58:32;98903.5;;;22.29;55.99
23361;BME280;11852;50.082;18.554;2022-07-06T12:59:57;98900.5;;;22.53;55.09
23361;BME280;11852;50.082;18.554;2022-07-06T13:01:05;98899.5;;;22.66;54.79
23361;BME280;11852;50.082;18.554;2022-07-06T13:02:21;98900.0;;;22.78;55.14
23361;BME280;11852;50.082;18.554;2022-07-06T13:03:26;98898.5;;;22.35;54.12
23361;BME280;11852;50.082;18.554;2022-07-06T13:04:34;98901.0;;;22.46;54.33
23361;BME280;11852;50.082;18.554;2022-07-06T13:05:48;98898.0;;;22.49;53.63
23361;BME280;11852;50.082;18.554;2022-07-06T13:06:46;98900.0;;;22.37;53.37
23361;BME280;11852;50.082;18.554;2022-07-06T13:07:59;98902.0;;;22.33;53.54
23361;BME280;11852;50.082;18.554;2022-07-06T13:09:40;98897.5;;;22.26;53.76
23361;BME280;11852;50.082;18.554;2022-07-06T13:10:47;98895.5;;;22.35;55.43
23361;BME280;11852;50.082;18.554;2022-07-06T13:11:52;98895.49;;;22.45;54.93
23361;BME280;11852;50.082;18.554;2022-07-06T13:13:00;98894.99;;;22.56;55.02
23361;BME280;11852;50.082;18.554;2022-07-06T13:15:25;98894.99;;;22.56;55.02
23361;BME280;11852;50.082;18.554;2022-07-06T13:16:30;98893.0;;;22.64;55.59
23361;BME280;11852;50.082;18.554;2022-07-06T13:17:40;98892.5;;;22.67;55.45
23361;BME280;11852;50.082;18.554;2022-07-06T13:18:56;98894.49;;;22.74;55.68
23361;BME280;11852;50.082;18.554;2022-07-06T13:20:20;98892.5;;;22.7;54.61
23361;BME280;11852;50.082;18.554;2022-07-06T13:21:25;98890.0;;;22.69;53.61
23361;BME280;11852;50.082;18.554;2022-07-06T13:22:53;98888.5;;;22.74;53.15
23361;BME280;11852;50.082;18.554;2022-07-06T13:24:02;98889.0;;;22.81;54.35
23361;BME280;11852;50.082;18.554;2022-07-06T13:25:12;98892.5;;;22.85;53.31
23361;BME280;11852;50.082;18.554;2022-07-06T13:26:17;98890.5;;;22.78;53.41
23361;BME280;11852;50.082;18.554;2022-07-06T13:27:38;98892.51;;;22.86;53.22
23361;BME280;11852;50.082;18.554;2022-07-06T13:28:43;98889.0;;;22.81;53.08
23361;BME280;11852;50.082;18.554;2022-07-06T13:29:48;98889.0;;;22.81;53.14
23361;BME280;11852;50.082;18.554;2022-07-06T13:30:53;98886.5;;;22.66;52.01
23361;BME280;11852;50.082;18.554;2022-07-06T13:32:10;98885.5;;;22.67;52.56
23361;BME280;11852;50.082;18.554;2022-07-06T13:33:15;98880.5;;;22.8;53.42
23361;BME280;11852;50.082;18.554;2022-07-06T13:34:20;98881.5;;;22.97;53.24
23361;BME280;11852;50.082;18.554;2022-07-06T13:35:25;98879.51;;;23.11;52.9
23361;BME280;11852;50.082;18.554;2022-07-06T13:36:30;98879.0;;;23.09;51.86
23361;BME280;11852;50.082;18.554;2022-07-06T13:37:35;98876.0;;;23.07;50.72
23361;BME280;11852;50.082;18.554;2022-07-06T13:38:47;98874.0;;;23.11;50.21
23361;BME280;11852;50.082;18.554;2022-07-06T13:40:09;98876.5;;;23.14;50.58
23361;BME280;11852;50.082;18.554;2022-07-06T13:41:14;98868.5;;;23.11;50.82
23361;BME280;11852;50.082;18.554;2022-07-06T13:42:25;98868.5;;;23.11;50.82
23361;BME280;11852;50.082;18.554;2022-07-06T13:43:30;98864.5;;;23.15;48.9
23361;BME280;11852;50.082;18.554;2022-07-06T13:44:36;98863.5;;;23.33;50.29
23361;BME280;11852;50.082;18.554;2022-07-06T13:45:41;98861.0;;;23.26;49.92
23361;BME280;11852;50.082;18.554;2022-07-06T13:46:47;98861.5;;;23.33;49.89
23361;BME280;11852;50.082;18.554;2022-07-06T13:47:52;98860.0;;;23.46;49.52
23361;BME280;11852;50.082;18.554;2022-07-06T13:48:57;98858.0;;;23.38;48.41
23361;BME280;11852;50.082;18.554;2022-07-06T13:50:02;98856.5;;;23.49;48.77
23361;BME280;11852;50.082;18.554;2022-07-06T13:51:08;98857.0;;;23.55;49.38
23361;BME280;11852;50.082;18.554;2022-07-06T13:52:13;98854.0;;;23.67;50.75
23361;BME280;11852;50.082;18.554;2022-07-06T13:53:30;98852.5;;;23.7;47.15
23361;BME280;11852;50.082;18.554;2022-07-06T13:54:40;98855.01;;;23.58;47.78
23361;BME280;11852;50.082;18.554;2022-07-06T13:55:46;98855.0;;;23.6;46.85
23361;BME280;11852;50.082;18.554;2022-07-06T13:56:54;98853.0;;;23.48;46.25
23361;BME280;11852;50.082;18.554;2022-07-06T13:59:02;98848.5;;;23.62;46.72
23361;BME280;11852;50.082;18.554;2022-07-06T14:00:18;98848.0;;;23.76;47.53
23361;BME280;11852;50.082;18.554;2022-07-06T14:01:32;98853.0;;;23.92;47.54
23361;BME280;11852;50.082;18.554;2022-07-06T14:02:48;98849.5;;;23.4;47.26
23361;BME280;11852;50.082;18.554;2022-07-06T14:03:53;98851.5;;;23.53;47.57
23361;BME280;11852;50.082;18.554;2022-07-06T14:04:58;98851.0;;;23.54;46.58
23361;BME280;11852;50.082;18.554;2022-07-06T14:06:24;98848.0;;;23.6;46.18
23361;BME280;11852;50.082;18.554;2022-07-06T14:07:30;98842.5;;;23.88;46.57
23361;BME280;11852;50.082;18.554;2022-07-06T14:08:54;98842.5;;;23.9;46.59
23361;BME280;11852;50.082;18.554;2022-07-06T14:10:02;98841.0;;;23.88;46.6
23361;BME280;11852;50.082;18.554;2022-07-06T14:11:07;98838.5;;;23.99;47.07
23361;BME280;11852;50.082;18.554;2022-07-06T14:12:32;98835.5;;;23.95;47.15
23361;BME280;11852;50.082;18.554;2022-07-06T14:14:40;98837.0;;;24.17;45.18
23361;BME280;11852;50.082;18.554;2022-07-06T14:15:44;98829.51;;;23.86;44.21
23361;BME280;11852;50.082;18.554;2022-07-06T14:17:00;98825.5;;;23.38;43.78
23361;BME280;11852;50.082;18.554;2022-07-06T14:18:09;98822.5;;;23.49;44.21
23361;BME280;11852;50.082;18.554;2022-07-06T14:19:24;98822.5;;;23.65;45.31
23361;BME280;11852;50.082;18.554;2022-07-06T14:20:29;98823.5;;;23.58;44.58
23361;BME280;11852;50.082;18.554;2022-07-06T14:21:51;98824.5;;;23.51;44.96
23361;BME280;11852;50.082;18.554;2022-07-06T14:23:06;98823.0;;;23.48;44.9
23361;BME280;11852;50.082;18.554;2022-07-06T14:24:12;98820.5;;;23.52;45.4
23361;BME280;11852;50.082;18.554;2022-07-06T14:25:28;98818.5;;;23.63;45.0
23361;BME280;11852;50.082;18.554;2022-07-06T14:26:36;98816.0;;;23.71;45.61
23361;BME280;11852;50.082;18.554;2022-07-06T14:27:46;98816.0;;;23.65;45.14
23361;BME280;11852;50.082;18.554;2022-07-06T14:28:51;98816.0;;;23.65;45.14
23361;BME280;11852;50.082;18.554;2022-07-06T14:29:56;98819.99;;;23.78;45.63
23361;BME280;11852;50.082;18.554;2022-07-06T14:31:02;98821.5;;;23.72;45.04
23361;BME280;11852;50.082;18.554;2022-07-06T14:32:07;98821.0;;;23.65;45.29
23361;BME280;11852;50.082;18.554;2022-07-06T14:33:13;98821.5;;;23.45;45.0
23361;BME280;11852;50.082;18.554;2022-07-06T14:34:18;98826.5;;;23.58;45.55
23361;BME280;11852;50.082;18.554;2022-07-06T14:35:22;98823.5;;;23.67;45.43
23361;BME280;11852;50.082;18.554;2022-07-06T14:36:27;98819.0;;;23.65;45.92
23361;BME280;11852;50.082;18.554;2022-07-06T14:37:37;98818.0;;;23.53;45.02
23361;BME280;11852;50.082;18.554;2022-07-06T14:38:44;98817.01;;;23.65;47.24
23361;BME280;11852;50.082;18.554;2022-07-06T14:39:49;98814.5;;;23.76;46.5
23361;BME280;11852;50.082;18.554;2022-07-06T14:40:54;98816.0;;;23.83;44.65
23361;BME280;11852;50.082;18.554;2022-07-06T14:42:09;98812.5;;;23.73;44.56
23361;BME280;11852;50.082;18.554;2022-07-06T14:43:16;98813.5;;;23.81;44.96
23361;BME280;11852;50.082;18.554;2022-07-06T14:44:25;98813.5;;;23.81;44.96
23361;BME280;11852;50.082;18.554;2022-07-06T14:45:30;98817.0;;;23.67;44.34
23361;BME280;11852;50.082;18.554;2022-07-06T14:46:34;98817.5;;;23.56;44.03
23361;BME280;11852;50.082;18.554;2022-07-06T14:47:38;98817.0;;;23.73;45.21
23361;BME280;11852;50.082;18.554;2022-07-06T14:48:44;98817.0;;;23.83;44.6
23361;BME280;11852;50.082;18.554;2022-07-06T14:49:48;98816.0;;;23.86;44.07
23361;BME280;11852;50.082;18.554;2022-07-06T14:50:53;98816.5;;;23.97;43.78
23361;BME280;11852;50.082;18.554;2022-07-06T14:51:57;98816.0;;;23.97;42.86
23361;BME280;11852;50.082;18.554;2022-07-06T14:53:02;98813.0;;;23.84;42.98
23361;BME280;11852;50.082;18.554;2022-07-06T14:54:06;98816.5;;;23.84;43.13
23361;BME280;11852;50.082;18.554;2022-07-06T14:55:11;98818.5;;;23.9;42.12
23361;BME280;11852;50.082;18.554;2022-07-06T14:56:15;98816.0;;;23.89;41.02
23361;BME280;11852;50.082;18.554;2022-07-06T14:57:20;98821.5;;;23.95;41.37
23361;BME280;11852;50.082;18.554;2022-07-06T14:58:25;98819.5;;;23.94;40.27
23361;BME280;11852;50.082;18.554;2022-07-06T14:59:34;98820.49;;;24.03;40.01
23361;BME280;11852;50.082;18.554;2022-07-06T15:00:37;98820.5;;;24.0;39.67
23361;BME280;11852;50.082;18.554;2022-07-06T15:01:42;98825.5;;;23.93;39.6
23361;BME280;11852;50.082;18.554;2022-07-06T15:02:52;98822.5;;;23.81;38.83
23361;BME280;11852;50.082;18.554;2022-07-06T15:03:56;98826.0;;;23.89;39.57
23361;BME280;11852;50.082;18.554;2022-07-06T15:05:00;98827.5;;;23.88;39.39
23361;BME280;11852;50.082;18.554;2022-07-06T15:06:05;98830.5;;;23.83;39.52
23361;BME280;11852;50.082;18.554;2022-07-06T15:07:09;98829.51;;;23.83;39.8
23361;BME280;11852;50.082;18.554;2022-07-06T15:08:14;98826.0;;;23.72;40.19
23361;BME280;11852;50.082;18.554;2022-07-06T15:09:18;98820.49;;;23.76;41.06
23361;BME280;11852;50.082;18.554;2022-07-06T15:10:22;98822.0;;;23.72;42.14
23361;BME280;11852;50.082;18.554;2022-07-06T15:11:26;98821.0;;;23.74;41.27
23361;BME280;11852;50.082;18.554;2022-07-06T15:12:31;98824.0;;;23.6;41.15
23361;BME280;11852;50.082;18.554;2022-07-06T15:13:35;98826.5;;;23.63;41.07
23361;BME280;11852;50.082;18.554;2022-07-06T15:14:39;98823.0;;;23.58;41.68
23361;BME280;11852;50.082;18.554;2022-07-06T15:15:44;98824.5;;;23.52;41.21
23361;BME280;11852;50.082;18.554;2022-07-06T15:16:48;98824.0;;;23.6;42.31
23361;BME280;11852;50.082;18.554;2022-07-06T15:17:52;98823.5;;;23.62;42.44
23361;BME280;11852;50.082;18.554;2022-07-06T15:18:56;98824.5;;;23.66;41.92
23361;BME280;11852;50.082;18.554;2022-07-06T15:20:01;98823.0;;;23.65;41.9
23361;BME280;11852;50.082;18.554;2022-07-06T15:21:05;98826.0;;;23.51;41.86
23361;BME280;11852;50.082;18.554;2022-07-06T15:22:30;98827.0;;;23.57;42.01
23361;BME280;11852;50.082;18.554;2022-07-06T15:23:35;98836.0;;;23.42;42.21
23361;BME280;11852;50.082;18.554;2022-07-06T15:28:25;98836.0;;;23.42;42.21
23361;BME280;11852;50.082;18.554;2022-07-06T15:29:29;98857.5;;;22.24;49.53
23361;BME280;11852;50.082;18.554;2022-07-06T15:30:34;98857.5;;;22.28;50.01
23361;BME280;11852;50.082;18.554;2022-07-06T15:31:38;98861.0;;;22.26;50.32
23361;BME280;11852;50.082;18.554;2022-07-06T15:32:43;98863.5;;;22.17;50.28
23361;BME280;11852;50.082;18.554;2022-07-06T15:33:47;98861.5;;;22.08;50.96
23361;BME280;11852;50.082;18.554;2022-07-06T15:34:52;98863.0;;;22.1;51.31
23361;BME280;11852;50.082;18.554;2022-07-06T15:35:56;98865.5;;;22.1;51.99
23361;BME280;11852;50.082;18.554;2022-07-06T15:37:00;98868.5;;;21.97;51.69
23361;BME280;11852;50.082;18.554;2022-07-06T15:38:05;98861.0;;;21.85;51.6
23361;BME280;11852;50.082;18.554;2022-07-06T15:39:10;98870.5;;;21.82;51.53
23361;BME280;11852;50.082;18.554;2022-07-06T15:40:14;98861.5;;;21.68;52.13
23361;BME280;11852;50.082;18.554;2022-07-06T15:41:19;98864.5;;;21.6;52.06
23361;BME280;11852;50.082;18.554;2022-07-06T15:42:23;98861.5;;;21.6;52.26
23361;BME280;11852;50.082;18.554;2022-07-06T15:43:28;98860.5;;;21.4;52.54
23361;BME280;11852;50.082;18.554;2022-07-06T15:44:32;98857.99;;;21.48;52.88
23361;BME280;11852;50.082;18.554;2022-07-06T15:45:36;98857.0;;;21.44;52.89
23361;BME280;11852;50.082;18.554;2022-07-06T15:46:41;98860.5;;;21.47;53.42
23361;BME280;11852;50.082;18.554;2022-07-06T15:47:45;98859.5;;;21.4;53.08
23361;BME280;11852;50.082;18.554;2022-07-06T15:48:49;98861.5;;;21.28;52.78
23361;BME280;11852;50.082;18.554;2022-07-06T15:49:54;98859.5;;;21.29;53.16
23361;BME280;11852;50.082;18.554;2022-07-06T15:50:58;98856.5;;;21.23;53.5
23361;BME280;11852;50.082;18.554;2022-07-06T15:52:03;98857.5;;;21.17;53.42
23361;BME280;11852;50.082;18.554;2022-07-06T15:53:08;98853.5;;;21.26;53.47
23361;BME280;11852;50.082;18.554;2022-07-06T15:54:12;98852.5;;;21.35;53.49
23361;BME280;11852;50.082;18.554;2022-07-06T15:55:17;98857.0;;;21.26;53.51
23361;BME280;11852;50.082;18.554;2022-07-06T15:57:23;98857.0;;;21.26;53.51
23361;BME280;11852;50.082;18.554;2022-07-06T15:58:27;98852.0;;;21.04;53.8
23361;BME280;11852;50.082;18.554;2022-07-06T15:59:32;98854.0;;;21.15;53.72
23361;BME280;11852;50.082;18.554;2022-07-06T16:00:36;98851.0;;;21.13;53.78
23361;BME280;11852;50.082;18.554;2022-07-06T16:01:41;98851.5;;;21.22;53.62
23361;BME280;11852;50.082;18.554;2022-07-06T16:02:45;98851.5;;;21.33;53.69
23361;BME280;11852;50.082;18.554;2022-07-06T16:03:50;98849.5;;;21.35;54.01
23361;BME280;11852;50.082;18.554;2022-07-06T16:04:59;98847.0;;;21.4;53.29
23361;BME280;11852;50.082;18.554;2022-07-06T16:06:04;98851.5;;;21.34;53.33
23361;BME280;11852;50.082;18.554;2022-07-06T16:07:08;98851.0;;;21.24;53.51
23361;BME280;11852;50.082;18.554;2022-07-06T16:08:13;98852.5;;;21.31;53.19
23361;BME280;11852;50.082;18.554;2022-07-06T16:09:17;98852.0;;;21.24;53.32
23361;BME280;11852;50.082;18.554;2022-07-06T16:10:21;98853.5;;;21.05;53.51
23361;BME280;11852;50.082;18.554;2022-07-06T16:11:25;98859.0;;;21.19;53.73
23361;BME280;11852;50.082;18.554;2022-07-06T16:12:40;98859.0;;;21.19;53.73
23361;BME280;11852;50.082;18.554;2022-07-06T16:13:45;98860.0;;;21.1;53.99
23361;BME280;11852;50.082;18.554;2022-07-06T16:14:49;98862.5;;;20.85;54.52
23361;BME280;11852;50.082;18.554;2022-07-06T16:15:54;98863.5;;;20.88;54.42
23361;BME280;11852;50.082;18.554;2022-07-06T16:16:58;98864.0;;;20.97;54.32
23361;BME280;11852;50.082;18.554;2022-07-06T16:18:02;98864.0;;;21.02;54.57
23361;BME280;11852;50.082;18.554;2022-07-06T16:19:07;98864.0;;;21.01;54.88
23361;BME280;11852;50.082;18.554;2022-07-06T16:20:11;98861.0;;;21.02;54.63
23361;BME280;11852;50.082;18.554;2022-07-06T16:21:15;98862.5;;;21.01;54.46
23361;BME280;11852;50.082;18.554;2022-07-06T16:22:20;98859.5;;;21.14;54.71
23361;BME280;11852;50.082;18.554;2022-07-06T16:23:24;98859.5;;;21.2;54.99
23361;BME280;11852;50.082;18.554;2022-07-06T16:24:28;98860.5;;;21.06;55.06
23361;BME280;11852;50.082;18.554;2022-07-06T16:25:32;98859.0;;;21.16;54.6
23361;BME280;11852;50.082;18.554;2022-07-06T16:26:37;98860.5;;;21.18;54.42
23361;BME280;11852;50.082;18.554;2022-07-06T16:27:41;98860.0;;;21.06;54.08
23361;BME280;11852;50.082;18.554;2022-07-06T16:28:46;98859.0;;;20.94;53.85
23361;BME280;11852;50.082;18.554;2022-07-06T16:29:50;98860.0;;;21.08;53.73
23361;BME280;11852;50.082;18.554;2022-07-06T16:30:55;98861.0;;;21.18;52.97
23361;BME280;11852;50.082;18.554;2022-07-06T16:32:00;98860.5;;;21.19;53.19
23361;BME280;11852;50.082;18.554;2022-07-06T16:33:04;98859.0;;;21.18;53.83
23361;BME280;11852;50.082;18.554;2022-07-06T16:34:09;98860.0;;;21.32;53.58
23361;BME280;11852;50.082;18.554;2022-07-06T16:35:13;98861.5;;;21.43;53.79
23361;BME280;11852;50.082;18.554;2022-07-06T16:36:18;98861.0;;;21.42;54.44
23361;BME280;11852;50.082;18.554;2022-07-06T16:37:22;98858.0;;;21.39;53.53
23361;BME280;11852;50.082;18.554;2022-07-06T16:38:26;98859.0;;;21.58;53.52
23361;BME280;11852;50.082;18.554;2022-07-06T16:39:30;98859.5;;;21.53;53.62
23361;BME280;11852;50.082;18.554;2022-07-06T16:40:35;98861.5;;;21.55;53.76
23361;BME280;11852;50.082;18.554;2022-07-06T16:41:43;98861.0;;;21.52;53.3
23361;BME280;11852;50.082;18.554;2022-07-06T16:42:48;98864.0;;;21.57;53.38
23361;BME280;11852;50.082;18.554;2022-07-06T16:43:52;98865.5;;;21.54;53.26
23361;BME280;11852;50.082;18.554;2022-07-06T16:44:56;98867.0;;;21.56;53.04
23361;BME280;11852;50.082;18.554;2022-07-06T16:46:01;98865.5;;;21.6;53.19
23361;BME280;11852;50.082;18.554;2022-07-06T16:47:05;98865.5;;;21.61;53.17
23361;BME280;11852;50.082;18.554;2022-07-06T16:48:10;98866.5;;;21.49;53.01
23361;BME280;11852;50.082;18.554;2022-07-06T16:49:14;98864.0;;;21.41;52.13
23361;BME280;11852;50.082;18.554;2022-07-06T16:50:19;98863.5;;;21.33;51.4
23361;BME280;11852;50.082;18.554;2022-07-06T16:51:23;98865.0;;;21.35;51.85
23361;BME280;11852;50.082;18.554;2022-07-06T16:52:28;98865.5;;;21.34;52.13
23361;BME280;11852;50.082;18.554;2022-07-06T16:53:32;98869.0;;;21.22;51.75
23361;BME280;11852;50.082;18.554;2022-07-06T16:54:36;98869.0;;;21.29;52.03
23361;BME280;11852;50.082;18.554;2022-07-06T16:55:41;98866.0;;;21.15;51.58
23361;BME280;11852;50.082;18.554;2022-07-06T16:56:45;98869.0;;;21.17;51.4
23361;BME280;11852;50.082;18.554;2022-07-06T16:58:20;98868.5;;;21.26;51.58
23361;BME280;11852;50.082;18.554;2022-07-06T16:59:24;98869.49;;;21.32;52.72
23361;BME280;11852;50.082;18.554;2022-07-06T17:00:28;98868.5;;;21.33;52.55
23361;BME280;11852;50.082;18.554;2022-07-06T17:01:33;98864.5;;;21.29;51.41
23361;BME280;11852;50.082;18.554;2022-07-06T17:02:37;98864.0;;;21.34;51.26
23361;BME280;11852;50.082;18.554;2022-07-06T17:03:57;98863.5;;;21.39;51.46